createdAt,value
2018-08-11T00:00:12.410Z,1011.62
2018-08-11T00:01:12.433Z,1011.61
2018-08-11T00:02:12.367Z,1011.58
2018-08-11T00:03:12.450Z,1011.62
2018-08-11T00:04:12.334Z,1011.52
2018-08-11T00:05:12.364Z,1011.58
2018-08-11T00:06:12.277Z,1011.60
2018-08-11T00:07:12.271Z,1011.50
2018-08-11T00:08:12.218Z,1011.55
2018-08-11T00:09:12.282Z,1011.52
2018-08-11T00:10:12.184Z,1011.56
2018-08-11T00:11:13.238Z,1011.57
2018-08-11T00:12:12.129Z,1011.56
2018-08-11T00:13:12.212Z,1011.59
2018-08-11T00:14:12.078Z,1011.58
2018-08-11T00:15:14.161Z,1011.56
2018-08-11T00:16:12.039Z,1011.54
2018-08-11T00:17:12.030Z,1011.54
2018-08-11T00:18:11.992Z,1011.55
2018-08-11T00:19:12.049Z,1011.56
2018-08-11T00:20:11.948Z,1011.54
2018-08-11T00:21:11.951Z,1011.57
2018-08-11T00:22:11.902Z,1011.49
2018-08-11T00:23:11.970Z,1011.50
2018-08-11T00:24:11.853Z,1011.55
2018-08-11T00:25:11.880Z,1011.53
2018-08-11T00:26:11.814Z,1011.52
2018-08-11T00:27:12.849Z,1011.52
2018-08-11T00:28:11.753Z,1011.57
2018-08-11T00:29:11.807Z,1011.53
2018-08-11T00:30:11.705Z,1011.58
2018-08-11T00:31:11.768Z,1011.58
2018-08-11T00:32:11.661Z,1011.58
2018-08-11T00:33:11.738Z,1011.60
2018-08-11T00:34:11.621Z,1011.61
2018-08-11T00:35:11.634Z,1011.65
2018-08-11T00:36:11.582Z,1011.66
2018-08-11T00:37:12.573Z,1011.63
2018-08-11T00:38:11.515Z,1011.62
2018-08-11T00:39:11.561Z,1011.71
2018-08-11T00:40:11.472Z,1011.79
2018-08-11T00:41:11.473Z,1011.86
2018-08-11T00:42:11.438Z,1011.82
2018-08-11T00:43:11.485Z,1011.94
2018-08-11T00:44:11.387Z,1011.93
2018-08-11T00:45:12.417Z,1012.06
2018-08-11T00:46:11.342Z,1012.04
2018-08-11T00:47:11.408Z,1012.04
2018-08-11T00:48:11.277Z,1011.99
2018-08-11T00:49:11.322Z,1011.98
2018-08-11T00:50:11.246Z,1012.04
2018-08-11T00:51:11.336Z,1012.08
2018-08-11T00:52:11.195Z,1012.12
2018-08-11T00:53:11.245Z,1012.10
2018-08-11T00:54:11.145Z,1012.17
2018-08-11T00:55:11.150Z,1012.33
2018-08-11T00:56:11.101Z,1012.17
2018-08-11T00:57:11.163Z,1012.18
2018-08-11T00:58:11.054Z,1012.18
2018-08-11T00:59:11.072Z,1012.24
2018-08-11T01:00:11.003Z,1012.16
2018-08-11T01:01:11.085Z,1012.25
2018-08-11T01:02:10.959Z,1012.15
2018-08-11T01:03:12.024Z,1012.21
2018-08-11T01:04:10.903Z,1012.20
2018-08-11T01:05:10.903Z,1012.17
2018-08-11T01:06:10.868Z,1012.18
2018-08-11T01:07:10.918Z,1012.25
2018-08-11T01:08:10.814Z,1012.23
2018-08-11T01:09:10.828Z,1012.32
2018-08-11T01:10:10.762Z,1012.26
2018-08-11T01:11:10.844Z,1012.32
2018-08-11T01:12:10.725Z,1012.29
2018-08-11T01:13:10.758Z,1012.36
2018-08-11T01:14:10.674Z,1012.30
2018-08-11T01:15:12.716Z,1012.22
2018-08-11T01:16:10.621Z,1012.30
2018-08-11T01:17:10.676Z,1012.29
2018-08-11T01:18:10.591Z,1012.39
2018-08-11T01:19:10.587Z,1012.46
2018-08-11T01:20:10.527Z,1012.46
2018-08-11T01:21:10.599Z,1012.51
2018-08-11T01:22:10.477Z,1012.63
2018-08-11T01:23:10.510Z,1012.64
2018-08-11T01:24:10.435Z,1012.63
2018-08-11T01:25:10.527Z,1012.65
2018-08-11T01:26:10.405Z,1012.72
2018-08-11T01:27:10.469Z,1012.69
2018-08-11T01:28:10.335Z,1012.78
2018-08-11T01:29:10.348Z,1012.74
2018-08-11T01:30:10.306Z,1012.82
2018-08-11T01:31:10.365Z,1012.95
2018-08-11T01:32:10.270Z,1012.85
2018-08-11T01:33:10.270Z,1012.84
2018-08-11T01:34:10.219Z,1012.75
2018-08-11T01:35:10.289Z,1012.75
2018-08-11T01:36:10.149Z,1012.72
2018-08-11T01:37:10.193Z,1012.80
2018-08-11T01:38:10.109Z,1012.88
2018-08-11T01:39:10.106Z,1012.93
2018-08-11T01:40:10.068Z,1012.99
2018-08-11T01:41:10.123Z,1013.02
2018-08-11T01:42:10.013Z,1013.02
2018-08-11T01:43:10.028Z,1012.94
2018-08-11T01:44:09.974Z,1012.88
2018-08-11T01:45:10.050Z,1012.87
2018-08-11T01:46:09.910Z,1012.88
2018-08-11T01:47:09.950Z,1012.84
2018-08-11T01:48:09.868Z,1012.88
2018-08-11T01:49:09.889Z,1012.84
2018-08-11T01:50:09.845Z,1012.78
2018-08-11T01:51:09.883Z,1012.75
2018-08-11T01:52:09.773Z,1012.74
2018-08-11T01:53:09.787Z,1012.77
2018-08-11T01:54:09.737Z,1012.69
2018-08-11T01:55:09.806Z,1012.67
2018-08-11T01:56:09.726Z,1012.65
2018-08-11T01:57:09.766Z,1012.67
2018-08-11T01:58:09.634Z,1012.69
2018-08-11T01:59:21.404Z,1012.64
2018-08-11T02:00:09.613Z,1012.61
2018-08-11T02:01:09.637Z,1012.53
2018-08-11T02:02:09.549Z,1012.47
2018-08-11T02:03:10.580Z,1012.44
2018-08-11T02:04:09.483Z,1012.42
2018-08-11T02:05:09.550Z,1012.57
2018-08-11T02:06:09.453Z,1012.63
2018-08-11T02:07:09.473Z,1012.58
2018-08-11T02:08:09.395Z,1012.55
2018-08-11T02:09:09.517Z,1012.64
2018-08-11T02:10:09.358Z,1012.73
2018-08-11T02:11:11.360Z,1012.66
2018-08-11T02:13:17.610Z,1012.53
2018-08-11T02:14:17.676Z,1012.43
2018-08-11T02:15:17.568Z,1012.26
2018-08-11T02:16:17.532Z,1012.26
2018-08-11T02:17:17.575Z,1012.25
2018-08-11T02:18:18.549Z,1012.28
2018-08-11T02:19:17.409Z,1012.45
2018-08-11T02:20:17.450Z,1012.57
2018-08-11T02:21:17.371Z,1012.58
2018-08-11T02:22:17.445Z,1012.70
2018-08-11T02:23:17.327Z,1012.71
2018-08-11T02:24:17.360Z,1012.75
2018-08-11T02:25:17.268Z,1012.76
2018-08-11T02:26:19.336Z,1012.76
2018-08-11T02:27:17.222Z,1012.74
2018-08-11T02:28:18.315Z,1012.76
2018-08-11T02:29:17.174Z,1012.72
2018-08-11T02:30:18.325Z,1012.75
2018-08-11T02:31:17.137Z,1012.70
2018-08-11T02:33:57.066Z,1012.79
2018-08-11T02:35:03.822Z,1012.77
2018-08-11T02:35:56.967Z,1012.84
2018-08-11T02:36:56.971Z,1012.85
2018-08-11T02:37:56.926Z,1012.84
2018-08-11T02:38:56.977Z,1012.84
2018-08-11T02:39:56.888Z,1012.81
2018-08-11T02:41:01.811Z,1012.76
2018-08-11T02:41:56.852Z,1012.68
2018-08-11T02:42:57.828Z,1012.68
2018-08-11T02:43:56.775Z,1012.63
2018-08-11T02:44:56.818Z,1012.61
2018-08-11T02:45:56.736Z,1012.55
2018-08-11T02:46:56.728Z,1012.54
2018-08-11T02:47:56.682Z,1012.52
2018-08-11T02:48:56.744Z,1012.50
2018-08-11T02:49:56.635Z,1012.54
2018-08-11T02:51:02.276Z,1012.54
2018-08-11T02:51:56.589Z,1012.54
2018-08-11T02:52:58.609Z,1012.55
2018-08-11T02:53:56.527Z,1012.53
2018-08-11T02:54:56.577Z,1012.50
2018-08-11T02:55:56.482Z,1012.48
2018-08-11T02:56:56.479Z,1012.49
2018-08-11T02:57:56.445Z,1012.54
2018-08-11T02:58:56.503Z,1012.54
2018-08-11T02:59:56.389Z,1012.57
2018-08-11T03:00:58.466Z,1012.56
2018-08-11T03:01:56.348Z,1012.60
2018-08-11T03:02:57.451Z,1012.65
2018-08-11T03:03:56.316Z,1012.68
2018-08-11T03:04:56.339Z,1012.66
2018-08-11T03:07:05.972Z,1012.69
2018-08-11T03:08:05.963Z,1012.64
2018-08-11T03:10:44.269Z,1012.66
2018-08-11T03:11:44.183Z,1012.67
2018-08-11T03:12:45.216Z,1012.67
2018-08-11T03:13:44.109Z,1012.68
2018-08-11T03:14:44.095Z,1012.72
2018-08-11T03:15:44.072Z,1012.77
2018-08-11T03:16:45.141Z,1012.80
2018-08-11T03:17:44.009Z,1012.80
2018-08-11T03:18:46.069Z,1012.80
2018-08-11T03:19:43.970Z,1012.85
2018-08-11T03:20:44.036Z,1012.83
2018-08-11T03:21:43.920Z,1012.87
2018-08-11T03:22:44.987Z,1012.89
2018-08-11T03:23:43.869Z,1012.88
2018-08-11T03:24:49.406Z,1012.93
2018-08-11T03:25:43.837Z,1012.94
2018-08-11T03:26:43.876Z,1012.95
2018-08-11T03:27:43.773Z,1012.94
2018-08-11T03:28:43.782Z,1013.02
2018-08-11T03:29:43.728Z,1013.01
2018-08-11T03:30:43.789Z,1013.01
2018-08-11T03:31:43.692Z,1013.07
2018-08-11T03:32:49.439Z,1013.12
2018-08-11T03:33:43.654Z,1013.12
2018-08-11T03:34:43.725Z,1013.14
2018-08-11T03:35:43.584Z,1013.13
2018-08-11T03:36:43.628Z,1013.19
2018-08-11T03:37:43.539Z,1013.17
2018-08-11T03:38:43.553Z,1013.19
2018-08-11T03:39:43.485Z,1013.22
2018-08-11T03:40:49.386Z,1013.21
2018-08-11T03:41:43.444Z,1013.23
2018-08-11T03:42:43.463Z,1013.22
2018-08-11T03:46:35.758Z,1013.14
2018-08-11T03:47:36.758Z,1013.17
2018-08-11T03:48:35.645Z,1013.20
2018-08-11T03:49:35.658Z,1013.21
2018-08-11T03:50:35.594Z,1013.22
2018-08-11T03:51:37.573Z,1013.20
2018-08-11T03:52:35.550Z,1013.22
2018-08-11T03:53:35.540Z,1013.22
2018-08-11T03:54:35.489Z,1013.27
2018-08-11T03:55:35.558Z,1013.25
2018-08-11T03:56:35.443Z,1013.25
2018-08-11T03:58:24.000Z,1013.25
2018-08-11T03:59:28.624Z,1013.24
2018-08-11T04:00:23.927Z,1013.31
2018-08-11T04:01:23.937Z,1013.29
2018-08-11T04:02:23.889Z,1013.31
2018-08-11T04:03:24.965Z,1013.31
2018-08-11T04:04:23.823Z,1013.29
2018-08-11T04:05:24.877Z,1013.29
2018-08-11T04:06:23.794Z,1013.26
2018-08-11T04:07:25.928Z,1013.27
2018-08-11T04:08:23.752Z,1013.29
2018-08-11T04:09:24.811Z,1013.26
2018-08-11T04:10:23.699Z,1013.26
2018-08-11T04:11:24.726Z,1013.27
2018-08-11T04:12:23.655Z,1013.28
2018-08-11T05:00:48.192Z,1013.50
2018-08-11T05:01:23.924Z,1013.53
2018-08-11T05:02:23.908Z,1013.57
2018-08-11T05:03:23.915Z,1013.60
2018-08-11T05:04:23.867Z,1013.63
2018-08-11T05:05:23.932Z,1013.64
2018-08-11T05:06:23.802Z,1013.65
2018-08-11T05:07:23.859Z,1013.67
2018-08-11T05:08:23.760Z,1013.69
2018-08-11T05:09:23.779Z,1013.75
2018-08-11T05:10:23.719Z,1013.74
2018-08-11T05:11:25.720Z,1013.72
2018-08-11T05:19:45.648Z,1013.88
2018-08-11T05:20:45.633Z,1013.92
2018-08-11T05:21:45.535Z,1013.93
2018-08-11T05:22:46.606Z,1013.92
2018-08-11T05:23:45.515Z,1013.87
2018-08-11T05:24:45.508Z,1013.85
2018-08-11T05:25:45.467Z,1013.85
2018-08-11T05:26:52.360Z,1013.85
2018-08-11T05:27:45.423Z,1013.90
2018-08-11T05:28:46.424Z,1013.88
2018-08-11T05:29:45.370Z,1013.93
2018-08-11T05:30:45.407Z,1013.93
2018-08-11T05:31:45.299Z,1013.92
2018-08-11T05:33:01.313Z,1013.85
2018-08-11T05:39:43.944Z,1013.98
2018-08-11T05:40:42.312Z,1013.98
2018-08-11T05:41:42.278Z,1014.03
2018-08-11T05:42:42.305Z,1014.00
2018-08-11T05:43:42.197Z,1014.03
2018-08-11T05:44:42.233Z,1014.04
2018-08-11T05:45:42.168Z,1014.04
2018-08-11T05:46:42.233Z,1014.00
2018-08-11T05:47:42.138Z,1014.06
2018-08-11T05:48:42.162Z,1014.08
2018-08-11T05:49:42.054Z,1014.09
2018-08-11T05:50:42.139Z,1014.11
2018-08-11T05:51:42.001Z,1014.12
2018-08-11T05:52:44.103Z,1014.09
2018-08-11T05:53:41.967Z,1014.09
2018-08-11T05:54:41.972Z,1014.08
2018-08-11T05:55:41.946Z,1014.10
2018-08-11T05:56:41.892Z,1014.06
2018-08-11T05:59:06.247Z,1014.13
2018-08-11T06:00:06.254Z,1014.16
2018-08-11T06:02:31.459Z,1014.14
2018-08-11T06:03:31.474Z,1014.24
2018-08-11T06:04:31.415Z,1014.24
2018-08-11T06:05:31.380Z,1014.24
2018-08-11T06:06:31.351Z,1014.23
2018-08-11T06:07:31.399Z,1014.18
2018-08-11T06:08:31.288Z,1014.21
2018-08-11T06:09:31.296Z,1014.33
2018-08-11T06:10:31.248Z,1014.31
2018-08-11T06:11:31.322Z,1014.33
2018-08-11T06:12:31.189Z,1014.32
2018-08-11T06:13:31.231Z,1014.33
2018-08-11T06:14:31.135Z,1014.31
2018-08-11T06:15:32.159Z,1014.30
2018-08-11T06:16:31.108Z,1014.31
2018-08-11T06:17:31.148Z,1014.32
2018-08-11T06:18:31.047Z,1014.37
2018-08-11T06:19:31.165Z,1014.32
2018-08-11T06:20:31.004Z,1014.32
2018-08-11T06:21:31.087Z,1014.29
2018-08-11T06:22:30.952Z,1014.32
2018-08-11T06:23:30.985Z,1014.30
2018-08-11T06:24:30.903Z,1014.27
2018-08-11T06:25:31.924Z,1014.28
2018-08-11T06:26:30.864Z,1014.30
2018-08-11T06:27:30.906Z,1014.25
2018-08-11T06:28:30.806Z,1014.28
2018-08-11T06:29:30.823Z,1014.27
2018-08-11T06:30:30.760Z,1014.27
2018-08-11T06:31:31.804Z,1014.31
2018-08-11T06:32:30.712Z,1014.33
2018-08-11T06:34:38.830Z,1014.33
2018-08-11T06:35:38.791Z,1014.37
2018-08-11T06:36:39.766Z,1014.38
2018-08-11T06:37:38.729Z,1014.37
2018-08-11T06:38:38.765Z,1014.39
2018-08-11T06:39:38.700Z,1014.42
2018-08-11T06:40:38.804Z,1014.42
2018-08-11T06:41:38.640Z,1014.42
2018-08-11T06:42:39.714Z,1014.41
2018-08-11T06:43:38.588Z,1014.37
2018-08-11T06:44:39.615Z,1014.37
2018-08-11T06:45:38.540Z,1014.39
2018-08-11T06:46:39.667Z,1014.44
2018-08-11T06:47:38.498Z,1014.46
2018-08-11T06:48:38.525Z,1014.48
2018-08-11T06:49:38.443Z,1014.47
2018-08-11T06:50:38.523Z,1014.54
2018-08-11T06:51:38.397Z,1014.54
2018-08-11T06:52:38.441Z,1014.52
2018-08-11T06:53:38.351Z,1014.52
2018-08-11T06:54:38.354Z,1014.54
2018-08-11T06:55:38.378Z,1014.57
2018-08-11T06:56:38.355Z,1014.58
2018-08-11T06:57:38.252Z,1014.61
2018-08-11T06:58:38.265Z,1014.62
2018-08-11T06:59:38.202Z,1014.57
2018-08-11T07:00:39.224Z,1014.59
2018-08-11T07:01:38.162Z,1014.63
2018-08-11T07:02:38.205Z,1014.65
2018-08-11T07:03:38.107Z,1014.65
2018-08-11T07:04:38.099Z,1014.67
2018-08-11T07:05:38.068Z,1014.69
2018-08-11T07:06:38.113Z,1014.69
2018-08-11T07:07:38.125Z,1014.69
2018-08-11T07:08:37.988Z,1014.72
2018-08-11T07:09:38.077Z,1014.69
2018-08-11T07:10:37.986Z,1014.72
2018-08-11T07:11:38.010Z,1014.69
2018-08-11T07:12:37.898Z,1014.72
2018-08-11T07:13:37.957Z,1014.67
2018-08-11T07:14:37.859Z,1014.64
2018-08-11T07:15:37.871Z,1014.64
2018-08-11T07:16:37.818Z,1014.63
2018-08-11T07:17:38.024Z,1014.64
2018-08-11T07:18:37.761Z,1014.68
2018-08-11T07:19:37.857Z,1014.67
2018-08-11T07:20:37.689Z,1014.69
2018-08-11T07:21:37.754Z,1014.70
2018-08-11T07:22:37.651Z,1014.71
2018-08-11T07:23:37.629Z,1014.73
2018-08-11T07:24:37.598Z,1014.77
2018-08-11T07:25:37.748Z,1014.74
2018-08-11T07:26:37.556Z,1014.79
2018-08-11T07:27:37.639Z,1014.75
2018-08-11T07:28:37.508Z,1014.77
2018-08-11T07:29:37.554Z,1014.76
2018-08-11T07:30:37.465Z,1014.77
2018-08-11T07:31:37.455Z,1014.71
2018-08-11T07:32:37.424Z,1014.79
2018-08-11T07:33:37.671Z,1014.83
2018-08-11T07:34:37.366Z,1014.77
2018-08-11T07:35:37.446Z,1014.79
2018-08-11T07:36:37.416Z,1014.80
2018-08-11T07:37:37.451Z,1014.79
2018-08-11T07:38:37.275Z,1014.77
2018-08-11T07:39:37.331Z,1014.81
2018-08-11T07:40:37.227Z,1014.79
2018-08-11T07:41:37.215Z,1014.79
2018-08-11T07:42:37.175Z,1014.78
2018-08-11T07:43:37.233Z,1014.83
2018-08-11T07:44:37.125Z,1014.82
2018-08-11T07:45:37.138Z,1014.84
2018-08-11T07:46:37.070Z,1014.84
2018-08-11T07:47:37.206Z,1014.77
2018-08-11T07:48:37.031Z,1014.82
2018-08-11T07:49:37.001Z,1014.86
2018-08-11T07:50:36.971Z,1014.89
2018-08-11T07:51:37.017Z,1014.92
2018-08-11T07:52:36.938Z,1014.84
2018-08-11T07:53:37.024Z,1014.84
2018-08-11T07:54:36.876Z,1014.87
2018-08-11T07:55:36.913Z,1014.91
2018-08-11T07:56:36.826Z,1014.84
2018-08-11T07:57:36.906Z,1014.85
2018-08-11T07:58:36.795Z,1014.82
2018-08-11T07:59:36.839Z,1014.83
2018-08-11T08:00:36.733Z,1014.82
2018-08-11T08:01:36.713Z,1014.82
2018-08-11T08:02:36.711Z,1014.80
2018-08-11T08:03:36.680Z,1014.84
2018-08-11T08:04:36.754Z,1014.86
2018-08-11T08:05:36.628Z,1014.87
2018-08-11T08:07:23.028Z,1014.83
2018-08-11T08:08:23.079Z,1014.84
2018-08-11T08:09:22.972Z,1014.82
2018-08-11T08:10:22.943Z,1014.85
2018-08-11T08:11:22.978Z,1014.91
2018-08-11T08:12:22.911Z,1014.94
2018-08-11T08:13:22.872Z,1014.93
2018-08-11T08:14:22.852Z,1014.96
2018-08-11T08:15:22.909Z,1014.91
2018-08-11T08:16:22.817Z,1014.98
2018-08-11T08:17:22.808Z,1014.99
2018-08-11T08:18:22.766Z,1014.99
2018-08-11T08:19:23.851Z,1014.98
2018-08-11T08:20:22.714Z,1014.97
2018-08-11T08:21:22.733Z,1014.98
2018-08-11T08:22:22.693Z,1015.02
2018-08-11T08:23:22.756Z,1015.01
2018-08-11T08:24:22.621Z,1014.96
2018-08-11T08:25:22.810Z,1014.95
2018-08-11T08:26:22.912Z,1014.98
2018-08-11T08:27:22.774Z,1014.96
2018-08-11T08:28:22.933Z,1015.02
2018-08-11T08:29:22.635Z,1015.04
2018-08-11T08:30:22.468Z,1015.02
2018-08-11T08:31:22.435Z,1015.06
2018-08-11T08:32:22.546Z,1015.08
2018-08-11T08:33:22.393Z,1015.04
2018-08-11T08:34:22.481Z,1015.09
2018-08-11T08:35:22.357Z,1015.10
2018-08-11T08:36:23.385Z,1014.99
2018-08-11T08:37:22.302Z,1015.01
2018-08-11T08:38:22.387Z,1015.02
2018-08-11T08:39:22.261Z,1015.07
2018-08-11T08:40:22.391Z,1015.04
2018-08-11T08:41:22.205Z,1015.09
2018-08-11T08:42:22.304Z,1014.99
2018-08-11T08:43:22.163Z,1015.05
2018-08-11T08:44:22.212Z,1015.02
2018-08-11T08:45:22.118Z,1015.03
2018-08-11T08:46:22.223Z,1015.01
2018-08-11T08:47:22.080Z,1015.03
2018-08-11T08:48:22.134Z,1015.02
2018-08-11T08:49:22.023Z,1014.99
2018-08-11T08:50:22.176Z,1015.07
2018-08-11T08:51:21.965Z,1015.04
2018-08-11T08:52:22.070Z,1014.98
2018-08-11T08:53:21.942Z,1014.99
2018-08-11T08:54:21.975Z,1014.98
2018-08-11T08:55:21.865Z,1014.94
2018-08-11T08:56:21.985Z,1014.97
2018-08-11T08:57:21.828Z,1014.91
2018-08-11T08:58:21.896Z,1014.97
2018-08-11T08:59:21.776Z,1015.01
2018-08-11T09:00:21.908Z,1015.00
2018-08-11T09:01:21.727Z,1015.03
2018-08-11T09:02:21.826Z,1015.04
2018-08-11T09:03:21.677Z,1015.00
2018-08-11T09:04:21.741Z,1014.99
2018-08-11T09:06:07.784Z,1014.95
2018-08-11T09:07:07.838Z,1014.94
2018-08-11T09:08:07.731Z,1015.02
2018-08-11T09:09:07.841Z,1015.00
2018-08-11T09:10:07.684Z,1014.99
2018-08-11T09:11:07.788Z,1015.06
2018-08-11T09:12:07.674Z,1015.06
2018-08-11T09:13:07.705Z,1014.99
2018-08-11T09:14:07.588Z,1014.97
2018-08-11T09:15:07.621Z,1014.91
2018-08-11T09:16:07.537Z,1014.90
2018-08-11T09:17:07.567Z,1014.91
2018-08-11T09:18:07.493Z,1014.98
2018-08-11T09:19:07.550Z,1014.90
2018-08-11T09:20:07.455Z,1014.88
2018-08-11T09:21:07.454Z,1014.93
2018-08-11T09:22:07.410Z,1015.02
2018-08-11T09:23:07.483Z,1014.99
2018-08-11T09:24:07.375Z,1014.99
2018-08-11T09:25:07.388Z,1015.01
2018-08-11T09:26:07.301Z,1015.04
2018-08-11T09:27:07.384Z,1015.00
2018-08-11T09:28:07.255Z,1015.11
2018-08-11T09:29:07.331Z,1015.03
2018-08-11T09:30:07.226Z,1015.08
2018-08-11T09:31:07.210Z,1015.09
2018-08-11T09:32:07.156Z,1015.03
2018-08-11T09:33:07.222Z,1015.05
2018-08-11T09:34:07.113Z,1015.08
2018-08-11T09:35:07.134Z,1015.03
2018-08-11T09:36:07.073Z,1015.02
2018-08-11T09:37:07.145Z,1015.14
2018-08-11T09:38:07.020Z,1015.02
2018-08-11T09:39:07.057Z,1015.00
2018-08-11T09:40:06.976Z,1015.09
2018-08-11T09:41:06.968Z,1015.07
2018-08-11T09:42:06.944Z,1015.10
2018-08-11T09:43:06.976Z,1015.06
2018-08-11T09:44:06.922Z,1015.06
2018-08-11T09:45:06.908Z,1015.13
2018-08-11T09:46:06.852Z,1015.19
2018-08-11T09:47:06.905Z,1015.12
2018-08-11T09:48:06.795Z,1015.12
2018-08-11T09:49:06.756Z,1015.10
2018-08-11T09:50:06.820Z,1015.06
2018-08-11T09:51:06.719Z,1015.13
2018-08-11T09:52:06.716Z,1015.15
2018-08-11T09:53:06.729Z,1015.14
2018-08-11T09:54:06.648Z,1015.08
2018-08-11T09:55:06.642Z,1015.13
2018-08-11T09:56:06.639Z,1015.12
2018-08-11T09:57:06.620Z,1015.14
2018-08-11T09:58:06.662Z,1015.09
2018-08-11T09:59:06.660Z,1015.07
2018-08-11T10:00:07.594Z,1015.12
2018-08-11T10:01:06.478Z,1015.02
2018-08-11T10:02:06.573Z,1015.14
2018-08-11T10:03:06.426Z,1015.00
2018-08-11T10:04:06.415Z,1015.16
2018-08-11T10:05:06.445Z,1015.03
2018-08-11T10:06:07.439Z,1015.00
2018-08-11T10:07:06.345Z,1015.09
2018-08-11T10:08:06.423Z,1015.05
2018-08-11T10:09:06.292Z,1015.05
2018-08-11T10:10:06.331Z,1015.09
2018-08-11T10:11:06.247Z,1015.02
2018-08-11T10:12:06.238Z,1015.02
2018-08-11T10:13:06.238Z,1014.99
2018-08-11T10:14:06.257Z,1015.02
2018-08-11T10:15:06.170Z,1015.05
2018-08-11T10:16:06.161Z,1015.00
2018-08-11T10:17:06.105Z,1015.02
2018-08-11T10:18:06.181Z,1014.92
2018-08-11T10:19:06.051Z,1014.99
2018-08-11T10:20:06.089Z,1015.01
2018-08-11T10:21:06.007Z,1014.96
2018-08-11T10:22:06.102Z,1015.00
2018-08-11T10:23:05.957Z,1015.02
2018-08-11T10:24:05.944Z,1015.05
2018-08-11T10:25:06.014Z,1015.03
2018-08-11T10:26:05.908Z,1015.06
2018-08-11T10:27:05.934Z,1014.97
2018-08-11T10:28:05.858Z,1015.04
2018-08-11T10:29:05.836Z,1015.02
2018-08-11T10:30:05.797Z,1015.08
2018-08-11T10:31:06.880Z,1015.11
2018-08-11T10:32:05.750Z,1014.99
2018-08-11T10:33:05.759Z,1015.01
2018-08-11T10:34:05.701Z,1015.03
2018-08-11T10:35:05.782Z,1015.00
2018-08-11T10:36:05.655Z,1015.05
2018-08-11T10:37:05.730Z,1014.98
2018-08-11T10:38:05.612Z,1015.03
2018-08-11T10:39:05.590Z,1015.02
2018-08-11T10:40:05.589Z,1014.94
2018-08-11T10:41:05.627Z,1014.98
2018-08-11T10:42:05.548Z,1014.98
2018-08-11T10:43:05.491Z,1014.97
2018-08-11T10:44:05.525Z,1015.02
2018-08-11T10:45:05.468Z,1014.99
2018-08-11T10:46:05.567Z,1014.99
2018-08-11T10:47:05.492Z,1015.06
2018-08-11T10:48:05.457Z,1015.06
2018-08-11T10:49:05.355Z,1015.00
2018-08-11T10:50:05.371Z,1015.07
2018-08-11T10:51:05.313Z,1015.05
2018-08-11T10:52:05.391Z,1015.03
2018-08-11T10:53:05.270Z,1015.03
2018-08-11T10:54:05.248Z,1015.14
2018-08-11T10:55:05.219Z,1015.13
2018-08-11T10:56:06.378Z,1015.07
2018-08-11T10:57:05.170Z,1015.08
2018-08-11T10:58:05.288Z,1015.02
2018-08-11T10:59:05.125Z,1015.07
2018-08-11T11:00:05.119Z,1015.06
2018-08-11T11:01:05.088Z,1015.02
2018-08-11T11:02:05.106Z,1015.00
2018-08-11T11:03:05.145Z,1014.98
2018-08-11T11:04:05.019Z,1015.10
2018-08-11T11:05:05.060Z,1015.09
2018-08-11T11:06:04.970Z,1015.08
2018-08-11T11:07:05.059Z,1015.06
2018-08-11T11:08:04.912Z,1015.04
2018-08-11T11:09:04.975Z,1015.02
2018-08-11T11:10:04.874Z,1015.04
2018-08-11T11:11:04.843Z,1015.01
2018-08-11T11:12:04.978Z,1015.08
2018-08-11T11:13:04.811Z,1015.07
2018-08-11T11:14:04.948Z,1015.09
2018-08-11T11:15:04.747Z,1015.11
2018-08-11T11:16:04.890Z,1015.15
2018-08-11T11:17:04.717Z,1015.11
2018-08-11T11:18:04.684Z,1015.11
2018-08-11T11:19:04.728Z,1015.12
2018-08-11T11:20:04.629Z,1015.13
2018-08-11T11:21:04.636Z,1015.14
2018-08-11T11:22:04.598Z,1015.15
2018-08-11T11:23:04.661Z,1015.15
2018-08-11T11:24:04.560Z,1015.15
2018-08-11T11:25:04.761Z,1015.14
2018-08-11T11:26:04.488Z,1015.14
2018-08-11T11:27:04.572Z,1015.16
2018-08-11T11:28:04.451Z,1015.12
2018-08-11T11:29:04.489Z,1015.13
2018-08-11T11:30:04.400Z,1015.24
2018-08-11T11:31:04.401Z,1015.09
2018-08-11T11:32:04.365Z,1015.05
2018-08-11T11:33:04.425Z,1015.04
2018-08-11T11:34:04.310Z,1015.13
2018-08-11T11:35:04.317Z,1015.04
2018-08-11T11:36:04.261Z,1015.07
2018-08-11T11:37:04.340Z,1015.06
2018-08-11T11:38:04.207Z,1015.06
2018-08-11T11:39:04.253Z,1015.14
2018-08-11T11:40:04.164Z,1015.10
2018-08-11T11:41:04.220Z,1015.02
2018-08-11T11:42:04.124Z,1015.03
2018-08-11T11:43:04.166Z,1014.95
2018-08-11T11:44:04.082Z,1015.02
2018-08-11T11:45:04.076Z,1015.00
2018-08-11T11:46:04.035Z,1015.02
2018-08-11T11:47:04.105Z,1015.01
2018-08-11T11:48:03.982Z,1015.06
2018-08-11T11:49:03.998Z,1015.01
2018-08-11T11:50:03.944Z,1015.09
2018-08-11T11:51:04.013Z,1015.06
2018-08-11T11:52:03.882Z,1014.94
2018-08-11T11:53:03.884Z,1014.97
2018-08-11T11:54:03.957Z,1015.03
2018-08-11T11:55:03.892Z,1014.97
2018-08-11T11:56:50.019Z,1014.98
2018-08-11T11:57:50.032Z,1014.98
2018-08-11T11:58:49.943Z,1014.96
2018-08-11T11:59:49.997Z,1014.98
2018-08-11T12:00:49.905Z,1015.04
2018-08-11T12:01:49.954Z,1015.03
2018-08-11T12:02:49.847Z,1014.94
2018-08-11T12:03:49.871Z,1014.96
2018-08-11T12:04:49.811Z,1014.97
2018-08-11T12:05:49.936Z,1015.00
2018-08-11T12:06:49.770Z,1014.95
2018-08-11T12:07:49.789Z,1014.92
2018-08-11T12:08:49.722Z,1015.00
2018-08-11T12:09:49.700Z,1014.95
2018-08-11T12:10:49.660Z,1014.99
2018-08-11T12:11:49.712Z,1014.90
2018-08-11T12:12:49.620Z,1014.91
2018-08-11T12:13:49.623Z,1014.90
2018-08-11T12:14:49.575Z,1014.93
2018-08-11T12:15:49.633Z,1014.85
2018-08-11T12:16:49.518Z,1014.88
2018-08-11T12:17:49.547Z,1014.88
2018-08-11T12:18:49.480Z,1014.84
2018-08-11T12:19:49.564Z,1014.84
2018-08-11T12:20:49.428Z,1014.84
2018-08-11T12:21:51.529Z,1014.87
2018-08-11T12:22:49.379Z,1014.91
2018-08-11T12:23:49.394Z,1014.90
2018-08-11T12:24:49.367Z,1014.86
2018-08-11T12:25:49.403Z,1014.82
2018-08-11T12:26:49.308Z,1014.84
2018-08-11T12:27:49.380Z,1014.91
2018-08-11T12:28:49.244Z,1014.89
2018-08-11T12:29:49.317Z,1014.98
2018-08-11T12:31:35.404Z,1014.96
2018-08-11T12:32:35.401Z,1014.95
2018-08-11T12:33:35.328Z,1014.92
2018-08-11T12:34:35.326Z,1014.95
2018-08-11T12:35:35.291Z,1014.94
2018-08-11T12:36:35.326Z,1014.97
2018-08-11T12:37:35.241Z,1014.87
2018-08-11T12:38:35.247Z,1014.89
2018-08-11T12:39:35.199Z,1014.91
2018-08-11T12:40:35.276Z,1014.90
2018-08-11T12:41:35.131Z,1014.86
2018-08-11T12:42:35.161Z,1014.77
2018-08-11T12:43:35.085Z,1014.78
2018-08-11T12:44:35.095Z,1014.79
2018-08-11T12:45:35.079Z,1014.81
2018-08-11T12:46:35.085Z,1014.79
2018-08-11T12:47:34.997Z,1014.79
2018-08-11T12:48:35.013Z,1014.79
2018-08-11T12:49:34.940Z,1014.80
2018-08-11T12:50:35.011Z,1014.80
2018-08-11T12:51:34.908Z,1014.83
2018-08-11T12:52:34.928Z,1014.85
2018-08-11T12:53:34.868Z,1014.87
2018-08-11T12:54:34.927Z,1014.78
2018-08-11T12:55:34.812Z,1014.79
2018-08-11T12:56:34.843Z,1014.68
2018-08-11T12:57:34.769Z,1014.74
2018-08-11T12:58:34.765Z,1014.76
2018-08-11T12:59:34.736Z,1014.75
2018-08-11T13:00:34.771Z,1014.69
2018-08-11T13:01:34.711Z,1014.69
2018-08-11T13:02:34.683Z,1014.71
2018-08-11T13:03:34.642Z,1014.70
2018-08-11T13:04:34.693Z,1014.72
2018-08-11T13:05:34.577Z,1014.69
2018-08-11T13:06:34.608Z,1014.73
2018-08-11T13:07:34.538Z,1014.72
2018-08-11T13:08:34.620Z,1014.73
2018-08-11T13:09:34.503Z,1014.67
2018-08-11T13:10:34.533Z,1014.63
2018-08-11T13:11:34.440Z,1014.67
2018-08-11T13:12:34.441Z,1014.60
2018-08-11T13:13:34.394Z,1014.65
2018-08-11T13:14:34.474Z,1014.64
2018-08-11T13:15:34.348Z,1014.72
2018-08-11T13:16:34.357Z,1014.68
2018-08-11T13:17:34.301Z,1014.75
2018-08-11T13:18:34.385Z,1014.78
2018-08-11T13:19:34.262Z,1014.74
2018-08-11T13:20:34.324Z,1014.67
2018-08-11T13:21:34.220Z,1014.68